createdAt,value
2022-09-15T00:02:00.232Z,21.09
2022-09-15T00:05:16.014Z,21.03
2022-09-15T00:08:32.089Z,21.05
2022-09-15T00:11:44.135Z,20.96
2022-09-15T00:15:00.080Z,20.97
2022-09-15T00:18:09.167Z,20.86
2022-09-15T00:21:23.103Z,20.84
2022-09-15T00:24:31.828Z,20.79
2022-09-15T00:27:41.053Z,20.76
2022-09-15T00:30:59.134Z,20.72
2022-09-15T00:34:19.075Z,20.73
2022-09-15T00:37:21.370Z,20.75
2022-09-15T00:40:36.060Z,20.76
2022-09-15T00:44:01.262Z,20.78
2022-09-15T00:47:19.679Z,20.78
2022-09-15T00:50:29.308Z,20.71
2022-09-15T00:53:45.095Z,20.65
2022-09-15T00:56:52.076Z,20.65
2022-09-15T01:00:12.053Z,20.63
2022-09-15T01:03:21.122Z,20.63
2022-09-15T01:06:36.207Z,20.59
2022-09-15T01:09:59.177Z,20.54
2022-09-15T01:13:12.175Z,20.50
2022-09-15T01:16:40.032Z,20.49
2022-09-15T01:20:27.087Z,20.45
2022-09-15T01:23:55.116Z,20.40
2022-09-15T01:27:43.837Z,20.32
2022-09-15T01:31:11.183Z,20.37
2022-09-15T01:34:24.152Z,20.33
2022-09-15T01:37:47.119Z,20.32
2022-09-15T01:40:55.639Z,20.31
2022-09-15T01:44:22.162Z,20.34
2022-09-15T01:47:41.132Z,20.35
2022-09-15T01:50:48.412Z,20.34
2022-09-15T01:54:08.132Z,20.35
2022-09-15T01:57:10.098Z,20.32
2022-09-15T02:00:25.130Z,20.32
2022-09-15T02:03:51.180Z,20.38
2022-09-15T02:07:08.055Z,20.34
2022-09-15T02:10:32.114Z,20.40
2022-09-15T02:13:57.987Z,20.37
2022-09-15T02:17:09.471Z,20.37
2022-09-15T02:20:25.139Z,20.34
2022-09-15T02:23:41.238Z,20.29
2022-09-15T02:27:00.208Z,20.25
2022-09-15T02:30:12.308Z,20.23
2022-09-15T02:33:26.161Z,20.23
2022-09-15T02:36:42.139Z,20.21
2022-09-15T02:39:55.425Z,20.22
2022-09-15T02:43:08.131Z,20.21
2022-09-15T02:46:28.160Z,20.21
2022-09-15T02:49:37.225Z,20.19
2022-09-15T02:52:46.703Z,20.04
2022-09-15T02:56:01.159Z,20.15
2022-09-15T02:59:03.640Z,20.19
2022-09-15T03:02:19.194Z,20.19
2022-09-15T03:05:30.081Z,20.17
2022-09-15T03:08:39.153Z,20.21
2022-09-15T03:11:48.032Z,20.20
2022-09-15T03:14:57.230Z,20.21
2022-09-15T03:18:12.171Z,20.22
2022-09-15T03:21:28.223Z,20.22
2022-09-15T03:24:30.259Z,20.21
2022-09-15T03:27:46.186Z,20.21
2022-09-15T03:30:55.409Z,20.21
2022-09-15T03:34:04.206Z,20.23
2022-09-15T03:37:13.067Z,20.22
2022-09-15T03:40:29.249Z,20.21
2022-09-15T03:43:39.187Z,20.19
2022-09-15T03:46:54.175Z,20.15
2022-09-15T03:50:03.212Z,20.11
2022-09-15T03:53:19.248Z,20.04
2022-09-15T03:56:37.284Z,20.02
2022-09-15T03:59:39.319Z,20.01
2022-09-15T04:02:55.182Z,20.00
2022-09-15T04:06:04.259Z,20.00
2022-09-15T04:09:13.192Z,20.01
2022-09-15T04:12:28.203Z,20.03
2022-09-15T04:15:44.224Z,20.06
2022-09-15T04:18:53.239Z,20.07
2022-09-15T04:22:02.155Z,20.09
2022-09-15T04:25:11.272Z,20.08
2022-09-15T04:28:20.460Z,20.08
2022-09-15T04:31:35.248Z,20.05
2022-09-15T04:34:44.219Z,19.99
2022-09-15T04:37:54.347Z,20.09
2022-09-15T04:41:10.211Z,20.08
2022-09-15T04:44:18.651Z,20.12
2022-09-15T04:47:33.219Z,20.17
2022-09-15T04:50:35.357Z,20.17
2022-09-15T04:53:51.267Z,20.18
2022-09-15T04:57:06.350Z,20.20
2022-09-15T05:00:17.225Z,20.22
2022-09-15T05:03:35.464Z,20.19
2022-09-15T05:06:51.271Z,20.28
2022-09-15T05:09:53.428Z,20.30
2022-09-15T05:13:09.271Z,20.32
2022-09-15T05:16:22.005Z,20.34
2022-09-15T05:19:31.352Z,20.33
2022-09-15T05:22:46.260Z,20.23
2022-09-15T05:26:05.250Z,20.32
2022-09-15T05:29:20.495Z,20.40
2022-09-15T05:32:36.386Z,20.40
2022-09-15T05:35:38.611Z,20.34
2022-09-15T05:38:54.313Z,20.30
2022-09-15T05:42:03.130Z,20.29
2022-09-15T05:45:25.258Z,20.31
2022-09-15T05:48:41.357Z,20.31
2022-09-15T05:51:50.311Z,20.33
2022-09-15T05:55:06.276Z,20.42
2022-09-15T05:58:08.707Z,20.55
2022-09-15T06:01:27.534Z,20.81
2022-09-15T06:04:36.423Z,21.07
2022-09-15T06:07:46.355Z,21.03
2022-09-15T06:11:01.272Z,21.09
2022-09-15T06:14:10.308Z,20.96
2022-09-15T06:17:26.268Z,20.97
2022-09-15T06:20:42.332Z,21.05
2022-09-15T06:23:50.047Z,20.99
2022-09-15T06:27:05.310Z,20.89
2022-09-15T06:30:16.101Z,20.96
2022-09-15T06:33:24.390Z,20.99
2022-09-15T06:36:33.560Z,21.05
2022-09-15T06:39:42.313Z,21.00
2022-09-15T06:42:57.566Z,21.20
2022-09-15T06:46:16.363Z,21.27
2022-09-15T06:49:18.830Z,21.33
2022-09-15T06:55:52.535Z,21.43
2022-09-15T06:59:08.355Z,21.23
2022-09-15T07:02:10.681Z,21.26
2022-09-15T07:05:26.552Z,21.28
2022-09-15T07:08:42.482Z,21.32
2022-09-15T07:11:58.344Z,21.35
2022-09-15T07:15:00.557Z,21.48
2022-09-15T07:18:15.353Z,21.54
2022-09-15T07:21:20.130Z,21.62
2022-09-15T07:24:36.352Z,21.88
2022-09-15T07:27:45.347Z,21.70
2022-09-15T07:30:54.423Z,21.85
2022-09-15T07:34:03.628Z,21.99
2022-09-15T07:37:12.777Z,22.36
2022-09-15T07:40:21.361Z,22.58
2022-09-15T07:43:37.378Z,23.00
2022-09-15T07:46:54.419Z,23.01
2022-09-15T07:50:03.342Z,23.00
2022-09-15T07:53:12.312Z,23.14
2022-09-15T07:56:30.349Z,23.19
2022-09-15T07:59:32.537Z,23.28
2022-09-15T08:02:54.457Z,23.31
2022-09-15T08:06:03.719Z,23.32
2022-09-15T08:09:12.496Z,23.42
2022-09-15T08:12:21.407Z,23.32
2022-09-15T08:15:30.368Z,23.36
2022-09-15T08:18:42.959Z,23.70
2022-09-15T08:21:58.384Z,23.78
2022-09-15T08:25:14.387Z,24.28
2022-09-15T08:28:23.537Z,24.39
2022-09-15T08:31:32.507Z,24.41
2022-09-15T08:34:41.603Z,24.43
2022-09-15T08:37:50.383Z,24.54
2022-09-15T08:41:05.360Z,24.62
2022-09-15T08:44:52.464Z,24.59
2022-09-15T08:47:58.630Z,24.57
2022-09-15T08:51:22.402Z,24.75
2022-09-15T08:54:40.391Z,24.72
2022-09-15T08:57:49.404Z,24.64
2022-09-15T09:01:24.039Z,24.72
2022-09-15T09:04:55.387Z,24.89
2022-09-15T09:08:31.371Z,24.96
2022-09-15T09:11:50.489Z,25.16
2022-09-15T09:15:27.483Z,25.19
2022-09-15T09:18:54.493Z,25.27
2022-09-15T09:22:18.503Z,25.44
2022-09-15T09:25:28.686Z,25.58
2022-09-15T09:28:49.931Z,25.62
2022-09-15T09:32:05.463Z,25.54
2022-09-15T09:35:36.480Z,25.62
2022-09-15T09:38:48.149Z,25.69
2022-09-15T09:41:56.496Z,25.97
2022-09-15T09:45:20.405Z,26.07
2022-09-15T09:48:29.908Z,26.28
2022-09-15T09:51:42.490Z,26.56
2022-09-15T09:55:03.720Z,26.85
2022-09-15T09:58:25.441Z,26.72
2022-09-15T10:01:27.884Z,26.89
2022-09-15T10:04:45.530Z,26.94
2022-09-15T10:07:54.472Z,26.91
2022-09-15T10:11:15.460Z,26.76
2022-09-15T10:14:35.787Z,26.62
2022-09-15T10:17:49.527Z,26.34
2022-09-15T10:21:06.557Z,26.18
2022-09-15T10:24:28.528Z,26.16
2022-09-15T10:27:43.552Z,26.33
2022-09-15T10:31:11.531Z,26.26
2022-09-15T10:34:31.608Z,26.67
2022-09-15T10:38:03.488Z,26.76
2022-09-15T10:41:21.915Z,26.63
2022-09-15T10:44:50.572Z,26.56
2022-09-15T10:48:26.544Z,26.65
2022-09-15T10:51:43.815Z,26.86
2022-09-15T10:55:36.757Z,26.87
2022-09-15T10:59:15.544Z,26.74
2022-09-15T11:02:48.560Z,26.67
2022-09-15T11:06:12.768Z,26.56
2022-09-15T11:09:40.496Z,26.60
2022-09-15T11:12:58.524Z,26.78
2022-09-15T11:16:43.554Z,27.57
2022-09-15T11:20:15.490Z,27.52
2022-09-15T11:23:37.624Z,27.41
2022-09-15T11:27:01.516Z,27.00
2022-09-15T11:30:22.508Z,26.55
2022-09-15T11:33:40.093Z,26.14
2022-09-15T11:36:55.576Z,25.91
2022-09-15T11:40:22.573Z,25.77
2022-09-15T11:43:51.511Z,25.70
2022-09-15T11:47:30.611Z,25.61
2022-09-15T11:50:52.530Z,25.58
2022-09-15T11:54:15.532Z,25.71
2022-09-15T11:57:25.455Z,25.99
2022-09-15T12:00:48.526Z,26.08
2022-09-15T12:04:10.530Z,26.37
2022-09-15T12:07:18.604Z,26.41
2022-09-15T12:10:46.570Z,26.11
2022-09-15T12:13:55.550Z,25.98
2022-09-15T12:17:06.334Z,25.73
2022-09-15T12:20:33.603Z,25.53
2022-09-15T12:23:42.103Z,25.34
2022-09-15T12:26:57.568Z,25.31
2022-09-15T12:30:06.803Z,25.35
2022-09-15T12:33:49.792Z,25.33
2022-09-15T12:37:17.544Z,25.39
2022-09-15T12:40:39.795Z,25.40
2022-09-15T12:44:05.572Z,25.57
2022-09-15T12:47:34.592Z,25.60
2022-09-15T12:50:40.778Z,25.43
2022-09-15T12:53:59.552Z,25.35
2022-09-15T12:57:30.563Z,25.22
2022-09-15T13:00:49.897Z,25.06
2022-09-15T13:04:29.583Z,24.97
2022-09-15T13:12:02.638Z,21.42
2022-09-15T13:15:21.618Z,17.28
2022-09-15T13:18:32.213Z,16.70
2022-09-15T13:21:52.676Z,16.94
2022-09-15T13:25:21.604Z,17.22
2022-09-15T13:28:40.607Z,17.38
2022-09-15T13:32:02.881Z,17.52
2022-09-15T13:35:33.623Z,17.57
2022-09-15T13:39:16.608Z,17.57
2022-09-15T13:42:45.141Z,17.64
2022-09-15T13:46:12.649Z,17.70
2022-09-15T13:49:50.669Z,17.90
2022-09-15T13:53:17.891Z,17.89
2022-09-15T13:56:35.636Z,17.89
2022-09-15T13:59:50.598Z,17.93
2022-09-15T14:02:57.929Z,18.08
2022-09-15T14:06:27.647Z,17.99
2022-09-15T14:09:38.682Z,18.12
2022-09-15T14:13:05.640Z,18.26
2022-09-15T14:16:22.794Z,18.42
2022-09-15T14:19:42.635Z,18.48
2022-09-15T14:22:57.636Z,18.64
2022-09-15T14:26:01.265Z,18.70
2022-09-15T14:29:25.692Z,18.75
2022-09-15T14:32:45.665Z,18.90
2022-09-15T14:35:54.719Z,18.75
2022-09-15T14:39:19.691Z,18.98
2022-09-15T14:42:35.015Z,18.98
2022-09-15T14:46:02.974Z,19.01
2022-09-15T14:49:15.149Z,18.89
2022-09-15T14:52:32.619Z,19.02
2022-09-15T14:56:04.357Z,19.00
2022-09-15T14:59:28.698Z,19.03
2022-09-15T15:02:57.635Z,18.97
2022-09-15T15:06:30.083Z,18.91
2022-09-15T15:09:51.686Z,18.98
2022-09-15T15:13:05.877Z,18.97
2022-09-15T15:16:34.709Z,18.93
2022-09-15T15:19:53.894Z,18.97
2022-09-15T15:23:11.896Z,19.05
2022-09-15T15:26:39.675Z,19.03
2022-09-15T15:29:54.701Z,18.99
2022-09-15T15:33:19.552Z,18.98
2022-09-15T15:36:36.655Z,19.04
2022-09-15T15:39:38.575Z,19.03
2022-09-15T15:43:01.732Z,19.08
2022-09-15T15:46:16.739Z,19.10
2022-09-15T15:49:26.671Z,19.17
2022-09-15T15:52:35.391Z,19.12
2022-09-15T15:55:47.674Z,19.14
2022-09-15T15:59:02.666Z,19.14
2022-09-15T16:02:13.159Z,19.14
2022-09-15T16:05:21.746Z,19.12
2022-09-15T16:08:40.711Z,19.20
2022-09-15T16:15:16.725Z,19.16
2022-09-15T16:18:25.428Z,19.20
2022-09-15T16:21:45.734Z,19.23
2022-09-15T16:24:47.639Z,19.22
2022-09-15T16:28:02.745Z,19.16
2022-09-15T16:31:04.636Z,19.10
2022-09-15T16:34:22.755Z,19.09
2022-09-15T16:37:31.315Z,19.07
2022-09-15T16:40:40.699Z,19.06
2022-09-15T16:43:49.657Z,19.11
2022-09-15T16:47:04.944Z,19.15
2022-09-15T16:50:07.496Z,19.13
2022-09-15T16:53:25.760Z,19.12
2022-09-15T16:56:34.419Z,19.07
2022-09-15T16:59:42.713Z,18.99
2022-09-15T17:02:51.346Z,18.94
2022-09-15T17:06:01.823Z,18.93
2022-09-15T17:09:10.487Z,18.93
2022-09-15T17:12:31.760Z,18.94
2022-09-15T17:15:42.772Z,18.90
2022-09-15T17:18:57.736Z,18.82
2022-09-15T17:21:59.763Z,18.77
2022-09-15T17:25:32.728Z,18.79
2022-09-15T17:28:47.807Z,18.75
2022-09-15T17:31:55.739Z,18.72
2022-09-15T17:35:21.296Z,18.75
2022-09-15T17:38:35.798Z,18.78
2022-09-15T17:41:37.835Z,18.79
2022-09-15T17:44:52.730Z,18.78
2022-09-15T17:48:03.444Z,18.76
2022-09-15T17:51:13.754Z,18.76
2022-09-15T17:54:23.147Z,18.75
2022-09-15T17:57:37.743Z,18.75
2022-09-15T18:00:48.748Z,18.78
2022-09-15T18:04:03.754Z,18.79
2022-09-15T18:07:15.785Z,18.78
2022-09-15T18:10:31.847Z,18.79
2022-09-15T18:13:47.092Z,18.81
2022-09-15T18:16:55.807Z,18.83
2022-09-15T18:20:11.772Z,18.87
2022-09-15T18:23:29.842Z,18.81
2022-09-15T18:26:31.743Z,18.79
2022-09-15T18:29:47.770Z,18.77
2022-09-15T18:32:57.177Z,18.73
2022-09-15T18:36:05.780Z,18.75
2022-09-15T18:39:20.778Z,18.70
2022-09-15T18:42:22.728Z,18.66
2022-09-15T18:45:37.801Z,18.61
2022-09-15T18:48:52.824Z,18.58
2022-09-15T18:52:00.817Z,18.50
2022-09-15T18:55:14.211Z,18.48
2022-09-15T18:58:28.803Z,18.46
2022-09-15T19:01:37.627Z,18.45
2022-09-15T19:04:48.776Z,18.44
2022-09-15T19:08:03.824Z,18.42
2022-09-15T19:11:25.828Z,18.42
2022-09-15T19:14:35.849Z,18.45
2022-09-15T19:17:44.982Z,18.48
2022-09-15T19:20:54.772Z,18.47
2022-09-15T19:24:03.536Z,18.49
2022-09-15T19:27:13.805Z,18.45
2022-09-15T19:30:22.617Z,18.46
2022-09-15T19:33:37.853Z,18.48
2022-09-15T19:36:39.606Z,18.47
2022-09-15T19:39:55.832Z,18.48
2022-09-15T19:42:57.723Z,18.48
2022-09-15T19:46:23.940Z,18.54
2022-09-15T19:49:32.672Z,18.58
2022-09-15T19:52:41.823Z,18.66
2022-09-15T19:55:52.075Z,18.65
2022-09-15T19:59:06.808Z,18.66
2022-09-15T20:02:16.940Z,18.62
2022-09-15T20:05:25.448Z,18.57
2022-09-15T20:08:33.849Z,18.56
2022-09-15T20:11:42.520Z,18.52
2022-09-15T20:15:03.839Z,18.49
2022-09-15T20:18:12.924Z,18.46
2022-09-15T20:21:49.181Z,18.44
2022-09-15T20:24:58.476Z,18.43
2022-09-15T20:28:06.928Z,18.43
2022-09-15T20:31:18.351Z,18.43
2022-09-15T20:34:32.904Z,18.42
2022-09-15T20:37:40.852Z,18.41
2022-09-15T20:40:59.880Z,18.42
2022-09-15T20:44:15.871Z,18.43
2022-09-15T20:47:17.943Z,18.49
2022-09-15T20:50:33.896Z,18.51
2022-09-15T20:53:36.138Z,18.56
2022-09-15T20:56:50.926Z,18.63
2022-09-15T21:00:05.918Z,18.66
2022-09-15T21:03:17.852Z,18.66
2022-09-15T21:06:34.876Z,18.61
2022-09-15T21:09:43.955Z,18.63
2022-09-15T21:12:51.902Z,18.62
2022-09-15T21:16:02.451Z,18.64
2022-09-15T21:19:10.919Z,18.56
2022-09-15T21:22:19.617Z,18.60
2022-09-15T21:25:33.921Z,18.61
2022-09-15T21:28:42.890Z,18.60
2022-09-15T21:31:51.547Z,18.62
2022-09-15T21:35:06.875Z,18.60
2022-09-15T21:38:08.693Z,18.66
2022-09-15T21:41:25.926Z,18.65
2022-09-15T21:44:33.935Z,18.63
2022-09-15T21:47:48.900Z,18.64
2022-09-15T21:50:57.752Z,18.61
2022-09-15T21:54:06.946Z,18.60
2022-09-15T21:57:15.533Z,18.60
2022-09-15T22:00:30.948Z,18.59
2022-09-15T22:03:32.666Z,18.56
2022-09-15T22:06:47.945Z,18.56
2022-09-15T22:09:57.852Z,18.53
2022-09-15T22:13:13.889Z,18.47
2022-09-15T22:16:30.973Z,18.43
2022-09-15T22:19:38.923Z,18.42
2022-09-15T22:22:53.894Z,18.42
2022-09-15T22:26:04.605Z,18.42
2022-09-15T22:29:13.892Z,18.38
2022-09-15T22:32:28.916Z,18.37
2022-09-15T22:35:37.485Z,18.34
2022-09-15T22:38:45.925Z,18.38
2022-09-15T22:42:00.923Z,18.35
2022-09-15T22:45:17.971Z,18.39
2022-09-15T22:48:19.719Z,18.38
2022-09-15T22:51:34.917Z,18.37
2022-09-15T22:54:37.041Z,18.41
2022-09-15T22:57:55.013Z,18.39
2022-09-15T23:01:13.004Z,18.42
2022-09-15T23:04:15.704Z,18.42
2022-09-15T23:07:29.945Z,18.43
2022-09-15T23:10:38.495Z,18.39
2022-09-15T23:13:53.933Z,18.37
2022-09-15T23:17:02.548Z,18.40
2022-09-15T23:20:11.946Z,18.33
2022-09-15T23:23:20.580Z,18.28
2022-09-15T23:26:34.952Z,18.23
2022-09-15T23:29:36.817Z,18.21
2022-09-15T23:32:51.993Z,18.20
2022-09-15T23:36:10.965Z,18.22
2022-09-15T23:39:18.979Z,18.20
2022-09-15T23:42:34.007Z,18.25
2022-09-15T23:45:36.117Z,18.21
2022-09-15T23:48:50.980Z,18.20
2022-09-15T23:51:59.857Z,18.20
2022-09-15T23:55:08.001Z,18.19
2022-09-15T23:58:23.995Z,18.18
